createdAt,value
2019-05-01T00:01:51.596Z,11.80
2019-05-01T00:04:23.100Z,11.80
2019-05-01T00:06:56.526Z,11.80
2019-05-01T00:09:26.518Z,11.80
2019-05-01T00:11:56.405Z,11.90
2019-05-01T00:14:28.264Z,11.90
2019-05-01T00:16:58.067Z,11.90
2019-05-01T00:19:27.700Z,11.90
2019-05-01T00:21:57.462Z,11.80
2019-05-01T00:24:27.223Z,11.80
2019-05-01T00:26:56.906Z,11.80
2019-05-01T00:29:26.729Z,11.80
2019-05-01T00:31:56.573Z,11.90
2019-05-01T00:34:26.339Z,11.90
2019-05-01T00:36:56.277Z,11.90
2019-05-01T00:39:26.126Z,11.80
2019-05-01T00:41:55.888Z,11.80
2019-05-01T00:44:25.741Z,11.70
2019-05-01T00:46:55.588Z,11.70
2019-05-01T00:49:25.383Z,11.60
2019-05-01T00:51:55.194Z,11.60
2019-05-01T00:54:25.232Z,11.60
2019-05-01T00:56:56.687Z,11.50
2019-05-01T00:59:27.947Z,11.50
2019-05-01T01:01:59.308Z,11.40
2019-05-01T01:04:29.121Z,11.40
2019-05-01T01:06:58.836Z,11.40
2019-05-01T01:09:28.723Z,11.30
2019-05-01T01:11:58.571Z,11.40
2019-05-01T01:14:28.371Z,11.30
2019-05-01T01:16:58.095Z,11.20
2019-05-01T01:19:27.823Z,11.30
2019-05-01T01:21:57.872Z,11.10
2019-05-01T01:24:27.799Z,11.10
2019-05-01T01:26:57.766Z,11.10
2019-05-01T01:29:27.611Z,11.00
2019-05-01T01:31:57.335Z,11.00
2019-05-01T01:34:27.182Z,10.90
2019-05-01T01:36:57.155Z,10.90
2019-05-01T01:39:26.975Z,10.90
2019-05-01T01:41:56.898Z,10.80
2019-05-01T01:44:28.260Z,10.80
2019-05-01T01:46:59.895Z,10.70
2019-05-01T01:49:29.817Z,10.70
2019-05-01T01:51:59.869Z,10.60
2019-05-01T01:54:29.960Z,10.60
2019-05-01T01:56:59.927Z,10.60
2019-05-01T01:59:30.080Z,10.60
2019-05-01T02:02:01.521Z,10.50
2019-05-01T02:04:34.487Z,10.40
2019-05-01T02:07:04.438Z,10.30
2019-05-01T02:09:34.377Z,10.30
2019-05-01T02:12:04.498Z,10.30
2019-05-01T02:14:34.477Z,10.30
2019-05-01T02:17:04.351Z,10.20
2019-05-01T02:19:34.243Z,10.10
2019-05-01T02:22:04.260Z,10.10
2019-05-01T02:24:34.110Z,10.00
2019-05-01T02:27:05.619Z,10.00
2019-05-01T02:29:37.387Z,10.00
2019-05-01T02:32:07.939Z,9.90
2019-05-01T02:34:38.980Z,9.90
2019-05-01T02:37:11.367Z,9.90
2019-05-01T02:39:42.907Z,9.90
2019-05-01T02:42:15.007Z,9.90
2019-05-01T02:44:47.716Z,9.80
2019-05-01T02:47:20.424Z,9.70
2019-05-01T02:49:53.396Z,9.70
2019-05-01T02:52:26.311Z,9.70
2019-05-01T02:54:58.497Z,9.70
2019-05-01T02:57:27.689Z,9.70
2019-05-01T02:59:58.491Z,9.70
2019-05-01T03:02:29.238Z,9.70
2019-05-01T03:05:00.543Z,9.70
2019-05-01T03:07:33.221Z,9.60
2019-05-01T03:10:08.916Z,9.60
2019-05-01T03:12:39.430Z,9.60
2019-05-01T03:15:11.061Z,9.60
2019-05-01T03:17:44.033Z,9.60
2019-05-01T03:20:16.911Z,9.60
2019-05-01T03:22:48.639Z,9.60
2019-05-01T03:25:19.415Z,9.70
2019-05-01T03:27:49.331Z,9.70
2019-05-01T03:30:19.174Z,9.70
2019-05-01T03:32:49.044Z,9.70
2019-05-01T03:35:19.115Z,9.80
2019-05-01T03:37:49.014Z,9.90
2019-05-01T03:40:19.149Z,9.80
2019-05-01T03:42:49.086Z,9.90
2019-05-01T03:45:19.400Z,9.90
2019-05-01T03:47:49.379Z,9.90
2019-05-01T03:50:19.525Z,10.00
2019-05-01T03:52:50.119Z,10.00
2019-05-01T03:55:20.036Z,10.00
2019-05-01T03:57:50.027Z,10.00
2019-05-01T04:00:22.473Z,10.10
2019-05-01T04:02:54.049Z,10.10
2019-05-01T04:05:24.093Z,10.20
2019-05-01T04:07:53.984Z,10.20
2019-05-01T04:10:23.853Z,10.30
2019-05-01T04:12:53.915Z,10.40
2019-05-01T04:15:23.962Z,10.50
2019-05-01T04:17:55.611Z,10.50
2019-05-01T04:20:25.488Z,10.60
2019-05-01T04:22:55.471Z,10.60
2019-05-01T04:25:26.553Z,10.70
2019-05-01T04:27:58.792Z,10.70
2019-05-01T04:30:32.613Z,10.80
2019-05-01T04:33:04.274Z,10.90
2019-05-01T04:35:36.468Z,10.90
2019-05-01T04:38:05.528Z,11.00
2019-05-01T04:40:35.677Z,11.10
2019-05-01T04:43:05.698Z,11.20
2019-05-01T04:45:35.569Z,11.30
2019-05-01T04:48:05.543Z,11.30
2019-05-01T04:50:35.874Z,11.40
2019-05-01T04:53:06.447Z,11.50
2019-05-01T04:55:36.395Z,11.60
2019-05-01T04:58:06.394Z,11.70
2019-05-01T05:00:36.647Z,11.70
2019-05-01T05:03:08.144Z,11.90
2019-05-01T05:05:38.423Z,12.00
2019-05-01T05:08:08.506Z,12.20
2019-05-01T05:10:38.814Z,12.30
2019-05-01T05:13:10.503Z,12.50
2019-05-01T05:15:42.494Z,12.70
2019-05-01T05:18:13.030Z,12.80
2019-05-01T05:20:43.064Z,12.90
2019-05-01T05:23:13.038Z,13.00
2019-05-01T05:25:43.303Z,13.10
2019-05-01T05:28:13.830Z,13.20
2019-05-01T05:30:45.190Z,13.30
2019-05-01T05:33:18.895Z,13.30
2019-05-01T05:35:50.474Z,13.30
2019-05-01T05:38:24.404Z,13.40
2019-05-01T05:40:55.164Z,13.50
2019-05-01T05:43:25.050Z,13.50
2019-05-01T05:45:55.326Z,13.60
2019-05-01T05:48:25.217Z,13.70
2019-05-01T05:50:58.871Z,13.70
2019-05-01T05:53:32.839Z,13.80
2019-05-01T05:56:07.140Z,13.80
2019-05-01T05:58:41.066Z,14.00
2019-05-01T06:01:14.223Z,14.00
2019-05-01T06:03:48.516Z,14.00
2019-05-01T06:06:23.201Z,14.10
2019-05-01T06:08:54.538Z,14.10
2019-05-01T06:11:29.670Z,14.20
2019-05-01T06:14:02.896Z,14.20
2019-05-01T06:16:35.384Z,14.20
2019-05-01T06:21:56.343Z,14.30
2019-05-01T06:24:28.070Z,14.40
2019-05-01T06:26:58.423Z,14.40
2019-05-01T06:29:31.049Z,14.40
2019-05-01T06:32:00.272Z,14.50
2019-05-01T06:34:30.257Z,14.50
2019-05-01T06:37:00.127Z,14.50
2019-05-01T06:39:30.016Z,14.60
2019-05-01T06:41:59.975Z,14.60
2019-05-01T06:44:33.513Z,14.70
2019-05-01T06:47:05.196Z,14.70
2019-05-01T06:49:37.849Z,14.80
2019-05-01T06:52:09.703Z,14.80
2019-05-01T06:54:40.104Z,14.90
2019-05-01T06:57:10.478Z,15.00
2019-05-01T06:59:41.638Z,15.00
2019-05-01T07:02:16.099Z,15.10
2019-05-01T07:04:48.309Z,15.10
2019-05-01T07:07:24.932Z,15.30
2019-05-01T07:09:53.564Z,15.40
2019-05-01T07:12:28.317Z,15.60
2019-05-01T07:14:57.024Z,15.80
2019-05-01T07:17:26.827Z,16.00
2019-05-01T07:19:58.814Z,16.20
2019-05-01T07:22:28.693Z,16.50
2019-05-01T07:25:03.390Z,16.60
2019-05-01T07:27:30.528Z,16.80
2019-05-01T07:30:01.966Z,17.10
2019-05-01T07:32:31.929Z,17.30
2019-05-01T07:35:03.803Z,17.50
2019-05-01T07:37:33.539Z,17.70
2019-05-01T07:40:04.955Z,18.00
2019-05-01T07:42:36.399Z,18.20
2019-05-01T07:45:10.068Z,18.40
2019-05-01T07:47:42.624Z,18.70
2019-05-01T07:50:15.077Z,19.10
2019-05-01T07:52:47.783Z,19.30
2019-05-01T07:55:20.088Z,19.60
2019-05-01T07:57:50.421Z,19.70
2019-05-01T08:00:24.721Z,19.80
2019-05-01T08:02:54.667Z,20.10
2019-05-01T08:05:24.751Z,20.30
2019-05-01T08:07:54.458Z,20.70
2019-05-01T08:10:25.860Z,21.00
2019-05-01T08:13:00.423Z,21.30
2019-05-01T08:15:30.393Z,21.50
2019-05-01T08:18:00.039Z,21.80
2019-05-01T08:20:31.521Z,22.00
2019-05-01T08:23:01.258Z,22.00
2019-05-01T08:25:33.250Z,22.20
2019-05-01T08:28:04.223Z,22.50
2019-05-01T08:30:35.813Z,22.90
2019-05-01T08:33:09.898Z,23.10
2019-05-01T08:35:39.088Z,23.30
2019-05-01T08:38:08.962Z,23.50
2019-05-01T08:40:38.803Z,23.70
2019-05-01T08:43:08.514Z,24.10
2019-05-01T08:45:40.613Z,24.30
2019-05-01T08:48:13.081Z,24.50
2019-05-01T08:50:42.985Z,24.80
2019-05-01T08:53:12.708Z,25.10
2019-05-01T08:55:45.042Z,25.20
2019-05-01T08:58:15.842Z,25.20
2019-05-01T09:00:45.755Z,25.40
2019-05-01T09:03:18.698Z,25.20
2019-05-01T09:05:47.175Z,25.40
2019-05-01T09:08:17.423Z,25.70
2019-05-01T09:10:49.475Z,25.80
2019-05-01T09:13:23.172Z,25.90
2019-05-01T09:15:50.148Z,26.20
2019-05-01T09:18:20.011Z,26.50
2019-05-01T09:20:51.325Z,26.50
2019-05-01T09:23:21.219Z,26.50
2019-05-01T09:25:52.628Z,26.50
2019-05-01T09:28:23.988Z,26.40
2019-05-01T09:31:01.330Z,26.60
2019-05-01T09:33:30.796Z,26.80
2019-05-01T09:35:58.560Z,26.70
2019-05-01T09:38:28.463Z,26.80
2019-05-01T09:40:58.373Z,26.70
2019-05-01T09:43:30.918Z,26.80
2019-05-01T09:45:59.739Z,27.00
2019-05-01T09:48:29.711Z,27.40
2019-05-01T09:51:05.410Z,27.70
2019-05-01T09:53:35.448Z,27.60
2019-05-01T09:56:07.639Z,27.50
2019-05-01T09:58:38.716Z,27.50
2019-05-01T10:01:08.630Z,27.60
2019-05-01T10:03:38.527Z,27.90
2019-05-01T10:06:08.475Z,27.90
2019-05-01T10:08:39.906Z,27.80
2019-05-01T10:11:10.947Z,28.20
2019-05-01T10:13:40.710Z,28.70
2019-05-01T10:16:10.624Z,28.80
2019-05-01T10:18:40.564Z,28.80
2019-05-01T10:21:10.455Z,28.80
2019-05-01T10:23:40.381Z,29.10
2019-05-01T10:26:11.593Z,29.40
2019-05-01T10:28:45.202Z,29.20
2019-05-01T10:31:16.077Z,28.80
2019-05-01T10:33:47.588Z,28.30
2019-05-01T10:36:20.688Z,28.10
2019-05-01T10:38:50.715Z,27.30
2019-05-01T10:41:20.511Z,26.60
2019-05-01T10:43:50.223Z,26.10
2019-05-01T10:46:21.120Z,25.70
2019-05-01T10:48:51.035Z,25.40
2019-05-01T10:51:20.850Z,25.40
2019-05-01T10:53:50.684Z,25.40
2019-05-01T10:56:20.515Z,25.30
2019-05-01T10:58:50.451Z,24.90
2019-05-01T11:01:21.890Z,24.30
2019-05-01T11:03:51.675Z,24.00
2019-05-01T11:06:21.595Z,23.90
2019-05-01T11:08:51.309Z,23.90
2019-05-01T11:11:21.161Z,23.80
2019-05-01T11:13:50.825Z,23.60
2019-05-01T11:16:20.807Z,23.60
2019-05-01T11:18:50.946Z,23.40
2019-05-01T11:21:20.791Z,22.80
2019-05-01T11:23:50.619Z,22.50
2019-05-01T11:26:20.490Z,22.20
2019-05-01T11:28:50.450Z,22.00
2019-05-01T11:31:21.918Z,21.70
2019-05-01T11:33:53.278Z,21.80
2019-05-01T11:36:24.839Z,21.90
2019-05-01T11:38:56.312Z,22.00
2019-05-01T11:41:27.767Z,22.10
2019-05-01T11:43:57.480Z,22.10
2019-05-01T11:46:27.922Z,22.00
2019-05-01T11:48:57.562Z,22.00
2019-05-01T11:51:27.368Z,22.00
2019-05-01T11:53:57.174Z,22.00
2019-05-01T11:56:27.038Z,22.00
2019-05-01T11:58:56.860Z,22.10
2019-05-01T12:01:27.264Z,22.30
2019-05-01T12:03:57.168Z,22.50
2019-05-01T12:06:27.291Z,22.60
2019-05-01T12:08:56.957Z,22.50
2019-05-01T12:11:28.424Z,22.60
2019-05-01T12:13:58.198Z,23.10
2019-05-01T12:16:29.689Z,23.50
2019-05-01T12:18:59.595Z,23.50
2019-05-01T12:21:29.425Z,23.60
2019-05-01T12:23:59.352Z,23.80
2019-05-01T12:26:29.196Z,24.00
2019-05-01T12:28:58.905Z,23.90
2019-05-01T12:31:31.167Z,23.90
2019-05-01T12:34:00.055Z,23.80
2019-05-01T12:36:36.400Z,23.80
2019-05-01T12:39:01.375Z,23.60
2019-05-01T12:41:34.231Z,23.10
2019-05-01T12:44:03.974Z,22.90
2019-05-01T12:46:35.377Z,22.80
2019-05-01T12:49:05.611Z,23.00
2019-05-01T12:51:36.351Z,23.70
2019-05-01T12:54:11.206Z,24.30
2019-05-01T12:56:42.687Z,24.70
2019-05-01T12:59:12.489Z,25.20
2019-05-01T13:01:42.316Z,25.60
2019-05-01T13:04:12.117Z,25.70
2019-05-01T13:06:49.249Z,25.50
2019-05-01T13:09:13.360Z,25.40
2019-05-01T13:11:43.012Z,25.90
2019-05-01T13:14:12.751Z,26.40
2019-05-01T13:16:42.599Z,27.40
2019-05-01T13:19:12.376Z,27.90
2019-05-01T13:21:42.087Z,27.80
2019-05-01T13:24:11.993Z,27.60
2019-05-01T13:26:43.272Z,27.60
2019-05-01T13:29:14.693Z,27.70
2019-05-01T13:31:46.174Z,27.80
2019-05-01T13:34:16.141Z,27.70
2019-05-01T13:36:46.120Z,27.40
2019-05-01T13:39:16.372Z,26.90
2019-05-01T13:41:46.297Z,26.40
2019-05-01T13:44:16.074Z,26.30
2019-05-01T13:46:45.867Z,26.20
2019-05-01T13:49:15.785Z,25.80
2019-05-01T13:51:45.624Z,25.40
2019-05-01T13:54:15.426Z,25.10
2019-05-01T13:56:45.139Z,24.90
2019-05-01T13:59:16.266Z,24.70
2019-05-01T14:01:46.138Z,24.40
2019-05-01T14:04:16.831Z,24.10
2019-05-01T14:06:46.595Z,23.80
2019-05-01T14:09:18.232Z,23.60
2019-05-01T14:11:47.989Z,23.90
2019-05-01T14:14:17.792Z,23.80
2019-05-01T14:16:47.639Z,23.60
2019-05-01T14:19:17.355Z,23.20
2019-05-01T14:21:48.710Z,23.00
2019-05-01T14:24:19.986Z,22.70
2019-05-01T14:26:49.883Z,22.40
2019-05-01T14:29:19.586Z,22.20
2019-05-01T14:31:49.419Z,22.00
2019-05-01T14:34:19.190Z,22.00
2019-05-01T14:36:49.094Z,22.10
2019-05-01T14:39:18.936Z,22.60
2019-05-01T14:41:48.751Z,23.50
2019-05-01T14:44:18.620Z,23.80
2019-05-01T14:46:48.372Z,23.70
2019-05-01T14:49:18.288Z,23.30
2019-05-01T14:51:48.176Z,22.90
2019-05-01T14:54:18.093Z,22.60
2019-05-01T14:56:47.899Z,22.50
2019-05-01T14:59:17.732Z,22.40
2019-05-01T15:01:47.476Z,22.70
2019-05-01T15:04:17.284Z,22.80
2019-05-01T15:06:47.199Z,22.80
2019-05-01T15:09:16.821Z,22.60
2019-05-01T15:11:46.892Z,22.30
2019-05-01T15:14:18.204Z,22.10
2019-05-01T15:16:49.882Z,21.80
2019-05-01T15:19:21.492Z,21.70
2019-05-01T15:21:51.295Z,21.70
2019-05-01T15:24:21.224Z,21.60
2019-05-01T15:26:51.083Z,21.60
2019-05-01T15:29:21.061Z,21.60
2019-05-01T15:31:50.743Z,21.50
2019-05-01T15:34:20.694Z,21.50
2019-05-01T15:36:50.335Z,21.50
2019-05-01T15:39:21.794Z,21.50
2019-05-01T15:41:53.204Z,21.70
2019-05-01T15:44:24.560Z,21.90
2019-05-01T15:46:54.463Z,22.20
2019-05-01T15:49:24.243Z,22.60
2019-05-01T15:51:54.009Z,22.90
2019-05-01T15:54:23.863Z,23.10
2019-05-01T15:56:53.774Z,23.00
2019-05-01T15:59:23.482Z,22.80
2019-05-01T16:01:53.170Z,22.50
2019-05-01T16:04:23.033Z,22.40
2019-05-01T16:06:52.978Z,22.30
2019-05-01T16:09:22.923Z,22.30
2019-05-01T16:11:54.388Z,22.20
2019-05-01T16:14:24.312Z,22.10
2019-05-01T16:16:54.288Z,21.90
2019-05-01T16:19:24.132Z,21.90
2019-05-01T16:21:54.187Z,21.80
2019-05-01T16:24:23.995Z,21.70
2019-05-01T16:26:54.818Z,21.60
2019-05-01T16:29:24.567Z,21.50
2019-05-01T16:31:54.324Z,21.40
2019-05-01T16:34:24.210Z,21.30
2019-05-01T16:36:54.129Z,21.20
2019-05-01T16:39:26.603Z,21.20
2019-05-01T16:41:56.406Z,21.00
2019-05-01T16:44:26.240Z,20.90
2019-05-01T16:46:55.923Z,20.90
2019-05-01T16:49:25.707Z,20.70
2019-05-01T16:51:55.661Z,20.80
2019-05-01T16:54:25.263Z,20.70
2019-05-01T16:56:57.377Z,20.70
2019-05-01T16:59:26.568Z,20.60
2019-05-01T17:01:58.035Z,20.50
2019-05-01T17:04:29.585Z,20.50
2019-05-01T17:07:00.943Z,20.40
2019-05-01T17:12:20.627Z,20.20
2019-05-01T17:14:50.515Z,19.90
2019-05-01T17:17:22.220Z,19.70
2019-05-01T17:19:51.959Z,19.60
2019-05-01T17:22:21.779Z,19.40
2019-05-01T17:24:51.687Z,19.10
2019-05-01T17:27:21.493Z,19.00
2019-05-01T17:29:51.275Z,18.90
2019-05-01T17:32:21.069Z,18.60
2019-05-01T17:34:50.919Z,18.40
2019-05-01T17:37:20.640Z,18.10
2019-05-01T17:39:50.518Z,18.00
2019-05-01T17:42:20.473Z,17.80
2019-05-01T17:44:50.135Z,17.70
2019-05-01T17:47:22.466Z,17.50
2019-05-01T17:49:51.279Z,17.40
2019-05-01T17:52:21.099Z,17.30
2019-05-01T17:54:50.940Z,17.20
2019-05-01T17:57:20.780Z,17.20
2019-05-01T17:59:52.216Z,17.00
2019-05-01T18:05:13.456Z,16.70
2019-05-01T18:07:43.403Z,16.70
2019-05-01T18:10:13.526Z,16.60
2019-05-01T18:12:43.343Z,16.50
2019-05-01T18:15:13.203Z,16.40
2019-05-01T18:17:43.140Z,16.30
2019-05-01T18:20:13.103Z,16.20
2019-05-01T18:22:44.591Z,16.20
2019-05-01T18:25:16.028Z,16.20
2019-05-01T18:27:49.803Z,16.20
2019-05-01T18:30:20.933Z,16.20
2019-05-01T18:32:52.541Z,16.20
2019-05-01T18:35:22.553Z,16.10
2019-05-01T18:37:53.963Z,16.10
2019-05-01T18:40:25.431Z,16.10
2019-05-01T18:42:55.390Z,16.10
2019-05-01T18:45:28.361Z,16.00
2019-05-01T18:47:58.252Z,16.00
2019-05-01T18:50:28.026Z,15.80
2019-05-01T18:52:57.938Z,15.80
2019-05-01T18:55:30.370Z,15.80
2019-05-01T18:57:59.448Z,15.70
2019-05-01T19:00:29.520Z,15.70
2019-05-01T19:02:59.560Z,15.70
2019-05-01T19:05:30.879Z,15.60
2019-05-01T19:08:00.823Z,15.50
2019-05-01T19:10:30.656Z,15.40
2019-05-01T19:13:00.533Z,15.30
2019-05-01T19:15:30.600Z,15.30
2019-05-01T19:18:00.487Z,15.30
2019-05-01T19:20:30.291Z,15.20
2019-05-01T19:23:00.422Z,15.10
2019-05-01T19:25:30.341Z,15.10
2019-05-01T19:28:01.209Z,15.00
2019-05-01T19:30:31.157Z,15.00
2019-05-01T19:33:00.943Z,15.00
2019-05-01T19:35:34.240Z,14.90
2019-05-01T19:38:04.443Z,14.90
2019-05-01T19:40:34.251Z,15.00
2019-05-01T19:43:04.087Z,14.90
2019-05-01T19:45:34.049Z,14.80
2019-05-01T19:48:04.268Z,14.80
2019-05-01T19:50:34.152Z,14.80
2019-05-01T19:53:03.847Z,14.80
2019-05-01T19:55:34.734Z,14.90
2019-05-01T19:58:04.836Z,14.90
2019-05-01T20:00:38.765Z,14.80
2019-05-01T20:03:08.728Z,14.80
2019-05-01T20:05:41.608Z,14.70
2019-05-01T20:08:10.241Z,14.70
2019-05-01T20:10:40.179Z,14.70
2019-05-01T20:13:12.290Z,14.70
2019-05-01T20:15:41.413Z,14.60
2019-05-01T20:18:11.292Z,14.60
2019-05-01T20:20:41.387Z,14.60
2019-05-01T20:23:11.211Z,14.60
2019-05-01T20:25:41.054Z,14.60
2019-05-01T20:28:10.810Z,14.60
2019-05-01T20:30:40.603Z,14.50
2019-05-01T20:33:10.295Z,14.40
2019-05-01T20:35:39.993Z,14.40
2019-05-01T20:38:09.790Z,14.40
2019-05-01T20:40:39.733Z,14.40
2019-05-01T20:43:09.670Z,14.40
2019-05-01T20:45:39.653Z,14.40
2019-05-01T20:48:09.455Z,14.40
2019-05-01T20:50:40.438Z,14.40
2019-05-01T20:53:10.188Z,14.40
2019-05-01T20:55:40.956Z,14.30
2019-05-01T20:58:12.375Z,14.30
2019-05-01T21:00:42.756Z,14.30
2019-05-01T21:03:14.201Z,14.30
2019-05-01T21:05:45.946Z,14.30
2019-05-01T21:08:17.404Z,14.30
2019-05-01T21:10:50.700Z,14.30
2019-05-01T21:13:23.260Z,14.30
2019-05-01T21:15:56.293Z,14.20
2019-05-01T21:18:25.907Z,14.20
2019-05-01T21:20:55.558Z,14.20
2019-05-01T21:23:25.367Z,14.20
2019-05-01T21:25:55.234Z,14.10
2019-05-01T21:28:25.158Z,14.10
2019-05-01T21:30:54.998Z,14.10
2019-05-01T21:33:24.742Z,14.20
2019-05-01T21:35:59.528Z,14.20
2019-05-01T21:38:27.030Z,14.20
2019-05-01T21:40:56.789Z,14.20
2019-05-01T21:43:27.875Z,14.20
2019-05-01T21:45:58.159Z,14.10
2019-05-01T21:48:28.000Z,14.10
2019-05-01T21:50:58.034Z,14.00
2019-05-01T21:53:29.241Z,14.00
2019-05-01T21:56:02.153Z,13.90
2019-05-01T21:58:33.268Z,13.90
2019-05-01T22:01:01.991Z,13.90
2019-05-01T22:03:31.917Z,13.90
2019-05-01T22:06:01.770Z,13.80
2019-05-01T22:08:34.489Z,13.90
2019-05-01T22:11:03.685Z,13.90
2019-05-01T22:13:33.576Z,13.90
2019-05-01T22:16:05.054Z,13.90
2019-05-01T22:18:36.539Z,13.90
2019-05-01T22:21:08.095Z,13.80
2019-05-01T22:23:39.099Z,13.80
2019-05-01T22:26:09.825Z,13.80
2019-05-01T22:28:41.328Z,13.80
2019-05-01T22:31:12.746Z,13.80
2019-05-01T22:33:44.143Z,13.80
2019-05-01T22:36:14.654Z,13.70
2019-05-01T22:38:46.652Z,13.70
2019-05-01T22:41:16.172Z,13.60
2019-05-01T22:43:46.051Z,13.60
2019-05-01T22:46:17.667Z,13.60
2019-05-01T22:48:47.436Z,13.60
2019-05-01T22:51:18.882Z,13.60
2019-05-01T22:53:50.303Z,13.60
2019-05-01T22:56:20.180Z,13.50
2019-05-01T22:58:49.655Z,13.50
2019-05-01T23:01:19.543Z,13.40
2019-05-01T23:03:50.985Z,13.40
2019-05-01T23:06:20.963Z,13.40
2019-05-01T23:08:50.598Z,13.30
2019-05-01T23:11:21.178Z,13.30
2019-05-01T23:13:51.091Z,13.20
2019-05-01T23:16:22.469Z,13.10
2019-05-01T23:18:53.224Z,13.10
2019-05-01T23:21:23.140Z,13.20
2019-05-01T23:23:56.823Z,13.10
2019-05-01T23:26:24.544Z,13.10
2019-05-01T23:28:54.332Z,13.10
2019-05-01T23:31:24.391Z,13.10
2019-05-01T23:33:54.202Z,13.00
2019-05-01T23:36:24.126Z,12.90
2019-05-01T23:38:53.921Z,12.80
2019-05-01T23:41:44.761Z,12.90
2019-05-01T23:43:58.097Z,12.80
2019-05-01T23:46:26.704Z,12.80
2019-05-01T23:48:56.414Z,12.80
2019-05-01T23:51:28.634Z,12.80
2019-05-01T23:53:57.396Z,12.80
2019-05-01T23:56:31.177Z,12.70
2019-05-01T23:58:58.782Z,12.60
